Time;durP1;ratioP1;P1;durP2;ratioP2;P2;SDS_P1;SDS_P2;PMS_P1;PMS_P2;Temp;Humidity;BMP_temperature;BMP_pressure;BME280_temperature;BME280_humidity;BME280_pressure;Samples;Min_cycle;Max_cycle;Signal;HPM_P1;HPM_P2
2023/01/17 08:45:42;;;;;;;9.10;3.40;;;2.10;99.90;;;;;;4942514;23;20571;-72
2023/01/17 08:48:09;;;;;;;13.03;3.07;;;2.00;99.90;;;;;;4945977;28;20250;-72
2023/01/17 08:50:36;;;;;;;7.40;3.50;;;1.80;99.90;;;;;;4957602;29;20200;-73
2023/01/17 08:53:03;;;;;;;6.53;3.20;;;1.80;99.90;;;;;;4943120;29;20244;-73
2023/01/17 08:55:30;;;;;;;6.93;3.50;;;1.90;99.90;;;;;;4939109;29;20209;-74
2023/01/17 08:57:57;;;;;;;7.67;3.30;;;2.00;99.90;;;;;;4939008;29;20209;-73
2023/01/17 09:00:24;;;;;;;7.13;3.90;;;2.00;99.90;;;;;;4938902;29;20691;-72
2023/01/17 09:02:53;;;;;;;8.73;3.53;;;2.00;99.90;;;;;;4926874;29;20316;-73
2023/01/17 09:05:20;;;;;;;5.50;2.80;;;2.00;99.90;;;;;;4919793;29;20268;-73
2023/01/17 09:07:46;;;;;;;6.60;3.43;;;2.10;99.90;;;;;;4920809;29;20232;-72
2023/01/17 09:10:13;;;;;;;8.03;3.50;;;2.00;99.90;;;;;;4937998;29;20213;-73
2023/01/17 09:12:40;;;;;;;6.57;2.67;;;2.00;99.90;;;;;;4933278;29;20247;-73
2023/01/17 09:15:07;;;;;;;9.50;2.90;;;2.10;99.90;;;;;;4938325;29;20209;-73
2023/01/17 09:17:34;;;;;;;9.47;3.30;;;2.20;99.90;;;;;;4938252;29;20574;-73
2023/01/17 09:20:02;;;;;;;7.03;3.27;;;2.20;99.90;;;;;;4938608;29;20292;-74
2023/01/17 09:22:29;;;;;;;7.30;3.63;;;2.20;99.90;;;;;;4954644;28;20224;-72
2023/01/17 09:24:56;;;;;;;6.90;2.83;;;2.10;99.90;;;;;;4957606;29;20213;-73
2023/01/17 09:27:23;;;;;;;5.60;3.10;;;2.10;99.90;;;;;;4957500;29;20259;-72
2023/01/17 09:29:49;;;;;;;8.03;3.60;;;2.10;99.90;;;;;;4949043;29;20201;-73
2023/01/17 09:32:16;;;;;;;12.13;3.63;;;2.10;99.90;;;;;;4952375;28;20223;-73
2023/01/17 09:34:43;;;;;;;7.60;3.07;;;2.20;99.90;;;;;;4957308;29;20204;-73
2023/01/17 09:37:11;;;;;;;10.13;3.30;;;2.30;99.90;;;;;;4957554;29;20243;-73
2023/01/17 09:39:38;;;;;;;7.60;3.20;;;2.30;99.90;;;;;;4957280;28;20204;-73
2023/01/17 09:42:19;;;;;;;7.23;2.90;;;2.40;99.90;;;;;;4943960;29;20225;-72
2023/01/17 09:44:50;;;;;;;5.17;2.93;;;2.40;99.90;;;;;;4938175;29;20220;-72
2023/01/17 09:47:24;;;;;;;7.93;3.20;;;2.50;99.90;;;;;;4937926;29;20567;-73
2023/01/17 09:49:52;;;;;;;8.07;3.00;;;2.50;99.90;;;;;;4938240;29;20212;-73
2023/01/17 09:52:23;;;;;;;8.10;2.90;;;2.50;99.90;;;;;;4952821;28;20228;-72
2023/01/17 09:54:50;;;;;;;5.17;2.40;;;2.50;99.90;;;;;;4956946;29;20211;-74
2023/01/17 09:57:34;;;;;;;7.40;2.87;;;2.50;99.90;;;;;;4956868;29;20204;-73
2023/01/17 10:00:08;;;;;;;7.13;3.10;;;2.70;99.90;;;;;;4957139;28;20212;-72
2023/01/17 10:02:52;;;;;;;11.50;3.90;;;2.90;99.90;;;;;;4956168;28;20228;-73
2023/01/17 10:05:30;;;;;;;8.73;3.00;;;3.00;99.90;;;;;;4941212;29;20212;-73
2023/01/17 10:08:17;;;;;;;7.47;2.87;;;3.10;99.90;;;;;;4923486;29;20247;-73
2023/01/17 10:10:52;;;;;;;8.10;2.27;;;3.10;99.90;;;;;;4937485;29;20217;-74
2023/01/17 10:13:34;;;;;;;8.17;2.70;;;3.10;99.90;;;;;;4933820;29;20235;-73
2023/01/17 10:16:12;;;;;;;6.47;2.77;;;3.10;99.90;;;;;;4937394;29;20208;-73
2023/01/17 10:19:18;;;;;;;6.10;2.90;;;3.10;99.90;;;;;;4937485;29;20226;-73
2023/01/17 10:22:01;;;;;;;14.13;3.43;;;3.10;99.90;;;;;;4936982;28;20224;-73
2023/01/17 10:25:06;;;;;;;5.80;2.73;;;3.10;99.90;;;;;;4956284;29;20602;-74
2023/01/17 10:27:35;;;;;;;7.53;2.93;;;3.10;99.90;;;;;;4956257;29;20214;-73
2023/01/17 10:30:12;;;;;;;8.47;3.13;;;3.20;99.90;;;;;;4949964;29;20208;-73
2023/01/17 10:32:46;;;;;;;6.20;2.70;;;3.30;99.90;;;;;;4950282;28;20228;-74
2023/01/17 10:35:20;;;;;;;8.07;2.73;;;3.20;99.90;;;;;;4955935;29;20212;-73
2023/01/17 10:37:49;;;;;;;4.33;2.50;;;3.30;99.90;;;;;;4947772;29;20211;-73
2023/01/17 10:40:23;;;;;;;7.57;2.63;;;3.50;99.90;;;;;;4936994;29;20213;-74
2023/01/17 10:42:55;;;;;;;7.27;2.57;;;3.50;99.90;;;;;;4936508;29;20239;-73
2023/01/17 10:45:27;;;;;;;6.43;2.77;;;3.60;99.90;;;;;;4936473;29;20564;-73
2023/01/17 10:48:01;;;;;;;7.27;2.67;;;3.70;99.90;;;;;;4936348;29;20327;-73
2023/01/17 10:50:32;;;;;;;6.40;3.27;;;3.80;99.90;;;;;;4936500;29;20677;-73
2023/01/17 10:53:06;;;;;;;8.80;2.30;;;3.80;99.90;;;;;;4936412;29;20255;-74
2023/01/17 10:55:42;;;;;;;5.07;2.53;;;3.90;99.90;;;;;;4936548;29;20695;-74
2023/01/17 10:58:12;;;;;;;7.80;3.00;;;3.80;99.90;;;;;;4936293;29;20216;-74
2023/01/17 11:00:47;;;;;;;6.60;2.73;;;3.90;99.90;;;;;;4936737;29;20209;-74
2023/01/17 11:03:16;;;;;;;4.90;2.40;;;4.10;99.90;;;;;;4954468;28;20294;-73
2023/01/17 11:05:43;;;;;;;9.57;2.43;;;4.10;99.90;;;;;;4955795;29;20215;-73
2023/01/17 11:08:13;;;;;;;4.00;1.90;;;4.30;99.90;;;;;;4936255;29;20231;-73
2023/01/17 11:10:43;;;;;;;7.80;1.80;;;4.50;99.90;;;;;;4936100;29;20216;-73
2023/01/17 11:13:24;;;;;;;8.57;3.03;;;4.60;99.90;;;;;;4953292;28;20234;-73
2023/01/17 11:15:56;;;;;;;6.07;1.60;;;4.50;99.90;;;;;;4955413;29;20215;-73
2023/01/17 11:18:26;;;;;;;9.53;1.60;;;4.40;99.90;;;;;;4955498;29;20267;-73
2023/01/17 11:21:05;;;;;;;4.40;1.50;;;4.10;99.90;;;;;;4955615;29;20663;-72
2023/01/17 11:23:33;;;;;;;1.67;0.80;;;4.20;99.90;;;;;;4955585;28;20231;-72
2023/01/17 11:26:06;;;;;;;3.13;1.17;;;4.00;99.90;;;;;;4955173;29;20686;-72
2023/01/17 11:28:34;;;;;;;3.43;1.47;;;4.30;99.90;;;;;;4955301;29;20282;-73
2023/01/17 11:31:03;;;;;;;4.90;1.60;;;4.20;99.90;;;;;;4955031;29;20331;-72
2023/01/17 11:33:45;;;;;;;3.90;1.43;;;4.20;99.90;;;;;;4955304;28;20234;-72
2023/01/17 11:36:21;;;;;;;5.40;1.20;;;3.90;99.90;;;;;;4955369;28;20204;-72
2023/01/17 11:38:58;;;;;;;1.87;0.90;;;4.10;99.90;;;;;;4935634;29;20210;-72
2023/01/17 11:41:28;;;;;;;3.07;1.10;;;4.30;99.90;;;;;;4917079;29;20209;-74
2023/01/17 11:43:57;;;;;;;4.40;1.13;;;4.60;99.90;;;;;;4925724;29;20272;-72
2023/01/17 11:46:27;;;;;;;2.07;0.43;;;4.70;99.90;;;;;;4925341;29;20216;-75
2023/01/17 11:48:55;;;;;;;2.00;0.57;;;4.70;99.90;;;;;;4916689;29;20233;-72
2023/01/17 11:51:29;;;;;;;1.87;0.50;;;4.30;99.90;;;;;;4916874;29;20213;-71
2023/01/17 11:54:08;;;;;;;6.60;0.50;;;4.20;99.90;;;;;;4916750;29;20213;-72
2023/01/17 11:56:39;;;;;;;4.57;1.07;;;4.30;99.90;;;;;;4916825;29;20209;-72
2023/01/17 11:59:38;;;;;;;3.97;0.60;;;4.20;99.90;;;;;;4916738;29;20235;-71
2023/01/17 12:02:35;;;;;;;3.27;0.93;;;4.00;99.90;;;;;;4913053;29;20713;-71
2023/01/17 12:05:14;;;;;;;5.07;0.97;;;3.90;99.90;;;;;;4915695;29;20216;-72
2023/01/17 12:07:51;;;;;;;1.87;0.70;;;4.40;99.90;;;;;;4916371;29;20763;-71
2023/01/17 12:10:25;;;;;;;3.57;1.07;;;4.80;99.90;;;;;;4916301;29;20255;-72
2023/01/17 12:15:58;;;;;;;5.20;1.03;;;5.10;99.90;;;;;;4916122;29;20208;-72
2023/01/17 12:18:49;;;;;;;1.07;0.43;;;4.60;99.90;;;;;;4916035;29;20213;-72
2023/01/17 12:21:19;;;;;;;1.77;0.60;;;4.40;99.90;;;;;;4916193;29;20214;-72
2023/01/17 12:24:20;;;;;;;3.23;0.60;;;4.10;99.90;;;;;;4916324;29;20565;-72
2023/01/17 12:26:55;;;;;;;2.87;0.40;;;4.40;99.90;;;;;;4903042;29;20209;-72
2023/01/17 12:29:51;;;;;;;1.50;0.27;;;4.70;99.90;;;;;;4919788;29;20239;-72
2023/01/17 12:32:37;;;;;;;3.47;0.70;;;4.80;99.90;;;;;;4919714;29;20569;-73
2023/01/17 12:35:09;;;;;;;1.23;0.60;;;4.90;99.90;;;;;;4919909;29;20205;-72
2023/01/17 12:37:39;;;;;;;0.80;0.33;;;5.10;99.90;;;;;;4919704;29;20216;-73
2023/01/17 12:40:19;;;;;;;1.13;0.50;;;5.30;99.90;;;;;;4919832;29;20205;-72
2023/01/17 12:42:52;;;;;;;2.03;0.70;;;5.10;99.90;;;;;;4920007;29;20232;-72
2023/01/17 12:45:25;;;;;;;1.00;0.40;;;5.10;99.90;;;;;;4938204;29;20220;-72
2023/01/17 12:47:59;;;;;;;1.73;0.40;;;5.10;99.90;;;;;;4938490;29;20209;-72
2023/01/17 12:50:32;;;;;;;3.90;0.50;;;5.10;99.90;;;;;;4938304;29;20239;-72
2023/01/17 12:53:04;;;;;;;5.73;0.50;;;5.20;99.90;;;;;;4938059;29;20284;-74
2023/01/17 12:55:40;;;;;;;1.40;0.60;;;4.90;99.90;;;;;;4931743;29;20216;-75
2023/01/17 12:58:15;;;;;;;1.13;0.63;;;4.80;99.90;;;;;;4936434;29;20220;-74
2023/01/17 13:00:45;;;;;;;5.07;0.57;;;5.00;99.90;;;;;;4935415;29;20563;-74
2023/01/17 13:03:22;;;;;;;2.23;0.60;;;4.80;99.90;;;;;;4922784;29;20232;-77
2023/01/17 13:05:51;;;;;;;2.83;0.60;;;4.50;99.90;;;;;;4937162;29;20212;-74
2023/01/17 13:08:24;;;;;;;1.17;0.43;;;4.40;99.90;;;;;;4936524;29;20568;-76
2023/01/17 13:10:55;;;;;;;2.83;0.90;;;4.40;99.90;;;;;;4937017;29;20209;-75
2023/01/17 13:13:24;;;;;;;1.57;0.50;;;4.50;99.90;;;;;;4936988;29;20236;-76
2023/01/17 13:15:55;;;;;;;1.03;0.33;;;4.50;99.90;;;;;;4922761;29;20677;-74
2023/01/17 13:18:25;;;;;;;3.07;0.87;;;4.40;99.90;;;;;;4918076;29;20213;-74
2023/01/17 13:21:10;;;;;;;5.23;0.47;;;4.30;99.90;;;;;;4917995;29;20209;-73
2023/01/17 13:24:00;;;;;;;1.47;0.50;;;4.20;99.90;;;;;;4925499;29;20205;-73
2023/01/17 13:26:38;;;;;;;1.60;0.70;;;4.30;99.90;;;;;;4937316;29;20221;-76
2023/01/17 13:29:10;;;;;;;1.37;0.60;;;4.30;99.90;;;;;;4937041;29;20283;-73
2023/01/17 13:31:51;;;;;;;1.67;0.40;;;4.40;99.90;;;;;;4930484;29;20230;-75
2023/01/17 13:34:52;;;;;;;1.53;0.50;;;4.70;99.90;;;;;;4936655;29;20208;-75
2023/01/17 13:37:47;;;;;;;1.87;0.70;;;4.90;99.90;;;;;;4936327;29;20271;-74
2023/01/17 13:40:26;;;;;;;2.30;0.50;;;4.70;99.90;;;;;;4936870;29;20216;-74
2023/01/17 13:42:55;;;;;;;5.40;0.93;;;4.60;99.90;;;;;;4936513;29;20247;-75
2023/01/17 13:45:25;;;;;;;1.63;0.77;;;4.60;99.90;;;;;;4935878;29;20213;-75
2023/01/17 13:48:09;;;;;;;1.60;0.70;;;4.80;99.90;;;;;;4935929;29;20209;-74
2023/01/17 13:50:47;;;;;;;4.23;0.60;;;5.10;99.90;;;;;;4936343;29;20236;-75
2023/01/17 13:53:55;;;;;;;3.50;0.93;;;5.00;99.90;;;;;;4922118;29;20806;-73
2023/01/17 13:56:33;;;;;;;5.90;0.70;;;4.60;99.90;;;;;;4936414;29;20259;-74
2023/01/17 13:59:27;;;;;;;2.50;1.03;;;4.70;99.90;;;;;;4936438;29;20569;-75
2023/01/17 14:01:54;;;;;;;1.60;0.80;;;5.00;99.90;;;;;;4935937;29;20232;-75
2023/01/17 14:05:04;;;;;;;3.70;0.73;;;5.20;99.90;;;;;;4936277;29;20664;-74
2023/01/17 14:07:34;;;;;;;2.33;0.80;;;5.00;99.90;;;;;;4935933;29;20217;-74
2023/01/17 14:10:15;;;;;;;3.30;0.53;;;4.80;99.90;;;;;;4936022;29;20259;-75
2023/01/17 14:12:43;;;;;;;4.07;0.80;;;5.00;99.90;;;;;;4936173;29;20228;-75
2023/01/17 14:15:20;;;;;;;2.03;0.50;;;5.30;99.90;;;;;;4935756;29;20208;-76
2023/01/17 14:17:57;;;;;;;2.93;0.53;;;5.50;99.90;;;;;;4935583;29;20311;-74
2023/01/17 14:20:51;;;;;;;3.20;0.60;;;5.50;99.90;;;;;;4917008;29;20209;-74
2023/01/17 14:23:53;;;;;;;1.13;0.70;;;5.50;99.90;;;;;;4922150;29;20235;-75
2023/01/17 14:26:28;;;;;;;3.30;0.70;;;5.30;99.90;;;;;;4935758;29;20216;-72
2023/01/17 14:28:56;;;;;;;3.80;0.83;;;5.10;99.90;;;;;;4935654;29;20213;-73
2023/01/17 14:31:23;;;;;;;3.17;0.70;;;4.80;99.90;;;;;;4935050;29;20212;-74
2023/01/17 14:33:51;;;;;;;0.83;0.50;;;4.70;99.90;;;;;;4935522;29;20220;-75
2023/01/17 14:36:27;;;;;;;0.67;0.37;;;4.70;99.90;;;;;;4935402;29;20681;-74
2023/01/17 14:38:53;;;;;;;0.93;0.50;;;4.90;99.90;;;;;;4935428;29;20208;-75
2023/01/17 14:41:23;;;;;;;5.37;0.60;;;4.90;99.90;;;;;;4935958;29;20209;-79
2023/01/17 14:43:51;;;;;;;1.50;0.57;;;4.90;99.90;;;;;;4934226;29;20209;-81
2023/01/17 14:46:23;;;;;;;2.63;0.53;;;4.90;99.90;;;;;;4933574;29;20311;-77
2023/01/17 14:48:51;;;;;;;3.03;0.60;;;4.80;99.90;;;;;;4934831;29;20287;-74
2023/01/17 14:51:21;;;;;;;1.30;0.63;;;4.80;99.90;;;;;;4934951;29;20321;-77
2023/01/17 14:53:57;;;;;;;6.83;1.27;;;4.40;99.90;;;;;;4935522;29;20208;-73
2023/01/17 14:56:25;;;;;;;0.83;0.60;;;4.30;99.90;;;;;;4935637;29;20220;-74
2023/01/17 14:59:06;;;;;;;3.60;0.90;;;4.20;99.90;;;;;;4935167;29;20219;-73
2023/01/17 15:01:35;;;;;;;5.87;1.10;;;4.00;99.90;;;;;;4934840;29;20228;-73
2023/01/17 15:04:02;;;;;;;7.37;1.07;;;3.90;99.90;;;;;;4934881;29;20213;-75
2023/01/17 15:06:36;;;;;;;4.90;1.63;;;4.00;99.90;;;;;;4934752;29;20213;-75
2023/01/17 15:09:10;;;;;;;4.20;1.80;;;4.00;99.90;;;;;;4934346;29;20215;-73
2023/01/17 15:11:38;;;;;;;2.10;1.30;;;4.10;99.90;;;;;;4934362;29;20232;-74
2023/01/17 15:14:06;;;;;;;6.57;1.90;;;4.20;99.90;;;;;;4933900;29;20212;-75
2023/01/17 15:16:35;;;;;;;1.93;0.90;;;4.20;99.90;;;;;;4934864;29;20399;-75
2023/01/17 15:19:09;;;;;;;7.77;1.30;;;4.20;99.90;;;;;;4934796;29;20214;-77
2023/01/17 15:21:41;;;;;;;4.30;0.90;;;4.20;99.90;;;;;;4934019;29;20224;-76
2023/01/17 15:24:13;;;;;;;1.33;0.80;;;4.20;99.90;;;;;;4934418;29;20211;-74
2023/01/17 15:26:42;;;;;;;5.57;1.20;;;4.20;99.90;;;;;;4934383;29;20215;-76
2023/01/17 15:29:14;;;;;;;4.10;0.90;;;4.10;99.90;;;;;;4934154;29;20660;-76
2023/01/17 15:31:42;;;;;;;1.67;1.13;;;4.10;99.90;;;;;;4934441;29;20775;-76
2023/01/17 15:34:21;;;;;;;1.73;0.90;;;4.00;99.90;;;;;;4934794;29;20216;-77
2023/01/17 15:36:49;;;;;;;7.23;0.90;;;3.90;99.90;;;;;;4933873;29;20243;-78
2023/01/17 15:39:21;;;;;;;7.57;1.00;;;3.80;99.90;;;;;;4929436;29;20215;-72
2023/01/17 15:41:51;;;;;;;3.70;1.00;;;3.70;99.90;;;;;;4935768;29;20225;-72
2023/01/17 15:44:29;;;;;;;1.80;0.90;;;3.60;99.90;;;;;;4935451;29;20224;-73
2023/01/17 15:46:56;;;;;;;1.63;0.80;;;3.50;99.90;;;;;;4935417;29;20215;-72
2023/01/17 15:49:25;;;;;;;2.93;0.93;;;3.50;99.90;;;;;;4950429;29;20232;-73
2023/01/17 15:51:54;;;;;;;0.97;0.80;;;3.30;99.90;;;;;;4954471;28;20236;-72
2023/01/17 15:54:40;;;;;;;4.10;1.40;;;3.40;99.90;;;;;;4954688;29;20214;-74
2023/01/17 15:57:22;;;;;;;1.50;0.87;;;3.40;99.90;;;;;;4944135;29;20205;-73
2023/01/17 15:59:53;;;;;;;2.07;1.20;;;3.30;99.90;;;;;;4954129;29;20219;-74
2023/01/17 16:02:33;;;;;;;2.50;1.20;;;3.10;99.90;;;;;;4954536;28;20224;-75
2023/01/17 16:05:01;;;;;;;5.87;1.07;;;2.90;99.90;;;;;;4954668;29;20666;-76
2023/01/17 16:07:33;;;;;;;4.73;1.10;;;2.80;99.90;;;;;;4954021;29;20208;-74
2023/01/17 16:10:15;;;;;;;5.33;1.17;;;2.70;99.90;;;;;;4934995;29;20288;-74
2023/01/17 16:12:41;;;;;;;5.03;1.07;;;2.70;99.90;;;;;;4935314;29;20599;-76
2023/01/17 16:15:09;;;;;;;2.90;1.10;;;2.60;99.90;;;;;;4935462;29;20208;-74
2023/01/17 16:17:36;;;;;;;5.27;1.63;;;2.60;99.90;;;;;;4936431;29;20209;-75
2023/01/17 16:20:09;;;;;;;8.03;1.53;;;2.50;99.90;;;;;;4954580;29;20207;-74
2023/01/17 16:22:36;;;;;;;2.63;1.27;;;2.40;99.90;;;;;;4954520;28;20235;-75
2023/01/17 16:25:05;;;;;;;4.07;1.23;;;2.30;99.90;;;;;;4954682;29;20208;-73
2023/01/17 16:27:33;;;;;;;3.10;1.23;;;2.30;99.90;;;;;;4954745;29;20214;-73
2023/01/17 16:30:00;;;;;;;2.67;1.37;;;2.20;99.90;;;;;;4954762;28;20232;-72
2023/01/17 16:32:27;;;;;;;2.43;1.40;;;2.10;99.90;;;;;;4952907;28;20274;-74
2023/01/17 16:34:54;;;;;;;8.63;1.30;;;2.00;99.90;;;;;;4934917;29;20219;-72
2023/01/17 16:37:21;;;;;;;3.87;1.23;;;2.00;99.90;;;;;;4935114;29;20212;-73
2023/01/17 16:39:48;;;;;;;2.07;1.10;;;2.00;99.90;;;;;;4953590;29;20215;-72
2023/01/17 16:42:15;;;;;;;3.53;1.03;;;1.90;99.90;;;;;;4943363;29;20229;-71
2023/01/17 16:44:43;;;;;;;1.70;0.77;;;1.90;99.90;;;;;;4933543;29;20217;-74
2023/01/17 16:47:10;;;;;;;1.50;1.23;;;1.80;99.90;;;;;;4932545;29;20228;-71
2023/01/17 16:49:36;;;;;;;1.37;0.90;;;1.80;99.90;;;;;;4935076;29;20213;-73
2023/01/17 16:52:04;;;;;;;3.07;1.10;;;1.80;99.90;;;;;;4934590;29;20312;-73
2023/01/17 16:54:30;;;;;;;5.23;1.37;;;1.70;99.90;;;;;;4935269;29;20209;-75
2023/01/17 16:56:57;;;;;;;2.73;1.50;;;1.70;99.90;;;;;;4953521;29;20224;-74
2023/01/17 16:59:24;;;;;;;5.67;1.50;;;1.60;99.90;;;;;;4949655;29;20208;-74
2023/01/17 17:01:53;;;;;;;4.23;1.80;;;1.60;99.90;;;;;;4934538;29;20225;-73
2023/01/17 17:04:20;;;;;;;3.50;1.23;;;1.50;99.90;;;;;;4925962;29;20568;-74
2023/01/17 17:06:47;;;;;;;6.80;1.20;;;1.50;99.90;;;;;;4950489;29;20671;-73
2023/01/17 17:09:14;;;;;;;3.13;1.17;;;1.50;99.90;;;;;;4953335;28;20655;-75
2023/01/17 17:11:41;;;;;;;7.57;1.90;;;1.40;99.90;;;;;;4968979;28;20254;-73
2023/01/17 17:14:08;;;;;;;7.33;2.00;;;1.30;99.90;;;;;;4972499;29;20574;-75
2023/01/17 17:16:35;;;;;;;6.27;2.27;;;1.30;99.90;;;;;;4956134;29;20228;-75
2023/01/17 17:19:06;;;;;;;3.93;2.03;;;1.30;99.90;;;;;;4956228;29;20248;-76
2023/01/17 17:21:36;;;;;;;4.37;2.70;;;1.20;99.90;;;;;;4943718;29;20234;-78
2023/01/17 17:24:04;;;;;;;6.50;3.17;;;1.20;99.90;;;;;;4937914;29;20216;-74
2023/01/17 17:26:33;;;;;;;4.27;2.57;;;1.20;99.90;;;;;;4953257;29;20208;-73
2023/01/17 17:29:00;;;;;;;4.77;2.57;;;1.20;99.90;;;;;;4957472;29;20216;-75
2023/01/17 17:31:27;;;;;;;4.33;2.80;;;1.20;99.90;;;;;;4956841;28;20247;-76
2023/01/17 17:33:58;;;;;;;5.07;2.70;;;1.20;99.90;;;;;;4957412;29;20681;-74
2023/01/17 17:36:26;;;;;;;8.97;3.87;;;1.10;99.90;;;;;;4956669;29;20671;-75
2023/01/17 17:38:54;;;;;;;5.83;3.37;;;1.00;99.90;;;;;;4956949;29;20667;-75
2023/01/17 17:41:22;;;;;;;9.07;4.10;;;1.00;99.90;;;;;;4942050;29;20204;-79
2023/01/17 17:43:50;;;;;;;8.37;3.97;;;1.00;99.90;;;;;;4938044;29;20215;-80
2023/01/17 17:46:17;;;;;;;8.40;4.20;;;1.00;99.90;;;;;;4950328;29;20525;-75
2023/01/17 17:48:44;;;;;;;6.97;3.73;;;1.00;99.90;;;;;;4957263;29;20214;-77
2023/01/17 17:51:22;;;;;;;16.37;4.43;;;1.00;99.90;;;;;;4953786;29;20729;-75
2023/01/17 17:53:51;;;;;;;12.97;4.60;;;1.00;99.90;;;;;;4918371;29;20241;-74
2023/01/17 17:56:18;;;;;;;12.47;4.43;;;1.00;99.90;;;;;;4943482;29;20219;-74
2023/01/17 17:58:45;;;;;;;11.77;4.37;;;0.90;99.90;;;;;;4955293;29;20210;-74
2023/01/17 18:01:12;;;;;;;10.90;5.57;;;0.90;99.90;;;;;;4955622;28;20212;-75
2023/01/17 18:03:39;;;;;;;14.43;5.50;;;0.90;99.90;;;;;;4955941;29;20211;-74
2023/01/17 18:06:09;;;;;;;12.27;5.93;;;0.90;99.90;;;;;;4955249;29;20240;-77
2023/01/17 18:08:37;;;;;;;11.83;5.37;;;0.80;99.90;;;;;;4956052;29;20212;-77
2023/01/17 18:11:09;;;;;;;14.40;5.80;;;0.80;99.90;;;;;;4940959;29;20725;-77
2023/01/17 18:13:37;;;;;;;14.17;5.20;;;0.80;99.90;;;;;;4916902;29;20803;-77
2023/01/17 18:16:06;;;;;;;14.83;6.37;;;0.80;99.90;;;;;;4939710;29;20208;-74
2023/01/17 18:18:34;;;;;;;10.50;5.77;;;0.80;99.90;;;;;;4955674;28;20251;-74
2023/01/17 18:21:09;;;;;;;16.43;5.90;;;0.80;99.90;;;;;;4954167;28;21403;-77
2023/01/17 18:23:38;;;;;;;11.67;5.83;;;0.80;99.90;;;;;;4954784;28;20227;-77
2023/01/17 18:26:14;;;;;;;16.30;6.97;;;1.00;99.90;;;;;;4954786;29;20212;-77
2023/01/17 18:28:41;;;;;;;14.20;6.17;;;1.00;99.90;;;;;;4954614;28;20203;-77
2023/01/17 18:31:08;;;;;;;17.00;6.47;;;0.90;99.90;;;;;;4954902;29;20239;-77
2023/01/17 18:33:36;;;;;;;16.67;7.23;;;0.90;99.90;;;;;;4955216;28;20234;-74
2023/01/17 18:36:04;;;;;;;13.07;6.23;;;0.80;99.90;;;;;;4953960;29;20639;-74
2023/01/17 18:38:37;;;;;;;15.93;6.97;;;0.70;99.90;;;;;;4936929;29;20219;-76
2023/01/17 18:41:07;;;;;;;16.63;7.30;;;0.70;99.90;;;;;;4943862;28;20550;-75
2023/01/17 18:43:34;;;;;;;13.13;6.10;;;0.60;99.90;;;;;;4936898;29;20315;-77
2023/01/17 18:46:00;;;;;;;15.93;7.83;;;0.70;99.90;;;;;;4947193;29;20271;-76
2023/01/17 18:48:27;;;;;;;16.13;6.70;;;0.70;99.90;;;;;;4955930;29;20223;-77
2023/01/17 18:50:55;;;;;;;17.83;7.57;;;0.70;99.90;;;;;;4955727;29;20254;-77
2023/01/17 18:53:22;;;;;;;11.83;6.60;;;0.70;99.90;;;;;;4956092;28;20254;-77
2023/01/17 18:55:53;;;;;;;12.67;7.33;;;0.70;99.90;;;;;;4955774;29;20204;-76
2023/01/17 18:58:22;;;;;;;22.60;8.37;;;0.60;99.90;;;;;;4955925;29;20208;-76
2023/01/17 19:00:50;;;;;;;15.00;8.03;;;0.70;99.90;;;;;;4955582;29;20686;-76
2023/01/17 19:03:18;;;;;;;13.83;7.50;;;0.80;99.90;;;;;;4955613;28;20228;-75
2023/01/17 19:05:45;;;;;;;15.70;7.17;;;0.80;99.90;;;;;;4949478;29;20204;-76
2023/01/17 19:08:12;;;;;;;15.00;8.07;;;0.80;99.90;;;;;;4956122;29;20235;-76
2023/01/17 19:10:39;;;;;;;22.93;8.10;;;0.70;99.90;;;;;;4955676;29;20255;-76
2023/01/17 19:13:06;;;;;;;19.20;8.13;;;0.70;99.90;;;;;;4955298;28;20223;-75
2023/01/17 19:15:35;;;;;;;13.67;8.17;;;0.80;99.90;;;;;;4955329;29;20208;-75
2023/01/17 19:18:01;;;;;;;15.30;7.43;;;0.80;99.90;;;;;;4955036;28;20207;-76
2023/01/17 19:20:28;;;;;;;17.87;9.17;;;0.70;99.90;;;;;;4955146;29;20212;-75
2023/01/17 19:22:55;;;;;;;18.73;8.80;;;0.80;99.90;;;;;;4955016;28;20236;-75
2023/01/17 19:25:24;;;;;;;25.50;9.90;;;0.80;99.90;;;;;;4955015;29;20208;-77
2023/01/17 19:27:51;;;;;;;18.13;8.83;;;0.90;99.90;;;;;;4955066;29;20207;-76
2023/01/17 19:30:19;;;;;;;22.87;10.07;;;0.80;99.90;;;;;;4955217;29;20215;-74
2023/01/17 19:32:49;;;;;;;21.10;9.30;;;0.80;99.90;;;;;;4916205;29;20229;-76
2023/01/17 19:35:16;;;;;;;21.60;9.83;;;0.80;99.90;;;;;;4926477;29;20208;-77
2023/01/17 19:37:45;;;;;;;18.13;9.40;;;0.80;99.90;;;;;;4955365;28;20218;-74
2023/01/17 19:40:12;;;;;;;23.67;8.87;;;0.90;99.90;;;;;;4949462;28;20608;-74
2023/01/17 19:42:40;;;;;;;27.40;9.70;;;0.80;99.90;;;;;;4935924;29;20237;-73
2023/01/17 19:45:08;;;;;;;17.67;8.03;;;0.70;99.90;;;;;;4939356;29;20278;-73
2023/01/17 19:47:35;;;;;;;25.23;10.37;;;0.70;99.90;;;;;;4955215;28;20208;-74
2023/01/17 19:50:07;;;;;;;22.63;9.43;;;0.70;99.90;;;;;;4954684;29;20211;-73
2023/01/17 19:52:34;;;;;;;26.57;10.87;;;0.70;99.90;;;;;;4954755;28;20335;-74
2023/01/17 19:55:01;;;;;;;20.50;8.83;;;0.80;99.90;;;;;;4954370;29;20215;-73
2023/01/17 19:57:33;;;;;;;22.83;9.33;;;0.80;99.90;;;;;;4954257;29;20223;-73
2023/01/17 20:00:00;;;;;;;17.87;9.93;;;0.80;99.90;;;;;;4916634;29;20214;-73
2023/01/17 20:02:27;;;;;;;25.77;8.73;;;0.80;99.90;;;;;;4916718;29;20236;-74
2023/01/17 20:04:54;;;;;;;20.40;8.77;;;0.70;99.90;;;;;;4920222;29;20569;-73
2023/01/17 20:07:22;;;;;;;15.90;8.30;;;0.60;99.90;;;;;;4954549;29;20208;-74
2023/01/17 20:09:49;;;;;;;18.57;7.87;;;0.60;99.90;;;;;;4954652;28;20255;-73
2023/01/17 20:12:16;;;;;;;25.30;9.63;;;0.60;99.90;;;;;;4954645;28;20251;-73
2023/01/17 20:14:42;;;;;;;18.93;9.77;;;0.60;99.90;;;;;;4954590;29;20234;-74
2023/01/17 20:17:09;;;;;;;24.67;9.20;;;0.60;99.90;;;;;;4954503;29;20220;-73
2023/01/17 20:19:36;;;;;;;21.50;10.53;;;0.60;99.90;;;;;;4954441;29;20218;-73
2023/01/17 20:22:04;;;;;;;23.70;10.07;;;0.50;99.90;;;;;;4954500;28;20750;-72
2023/01/17 20:24:32;;;;;;;23.57;10.00;;;0.40;99.90;;;;;;4954523;29;20544;-74
2023/01/17 20:26:59;;;;;;;19.77;9.90;;;0.50;99.90;;;;;;4939856;28;20205;-74
2023/01/17 20:29:26;;;;;;;16.97;8.90;;;0.40;99.90;;;;;;4935527;29;20209;-73
2023/01/17 20:31:53;;;;;;;21.00;8.97;;;0.40;99.90;;;;;;4935322;29;20248;-74
2023/01/17 20:34:20;;;;;;;16.97;8.43;;;0.40;99.90;;;;;;4935660;29;20208;-74
2023/01/17 20:36:47;;;;;;;20.50;7.83;;;0.30;99.90;;;;;;4951894;29;20208;-73
2023/01/17 20:39:14;;;;;;;16.70;8.47;;;0.40;99.90;;;;;;4953725;29;20211;-73
2023/01/17 20:41:44;;;;;;;15.93;8.53;;;0.40;99.90;;;;;;4936489;29;20247;-73
2023/01/17 20:44:13;;;;;;;17.93;8.17;;;0.50;99.90;;;;;;4934374;29;20675;-73
2023/01/17 20:46:41;;;;;;;25.77;8.47;;;0.50;99.90;;;;;;4953744;29;20219;-73
2023/01/17 20:49:12;;;;;;;18.50;8.60;;;0.50;99.90;;;;;;4937907;28;20213;-73
2023/01/17 20:51:39;;;;;;;22.20;8.10;;;0.50;99.90;;;;;;4938382;29;20244;-74
2023/01/17 20:54:07;;;;;;;18.07;8.03;;;0.50;99.90;;;;;;4938675;29;20200;-73
2023/01/17 20:56:36;;;;;;;21.67;9.17;;;0.40;99.90;;;;;;4939060;29;20215;-73
2023/01/17 20:59:07;;;;;;;17.20;9.00;;;0.50;99.90;;;;;;4953358;29;20259;-73
2023/01/17 21:01:34;;;;;;;24.67;10.33;;;0.60;99.90;;;;;;4957774;28;20312;-73
2023/01/17 21:04:02;;;;;;;16.87;9.50;;;0.50;99.90;;;;;;4957695;29;20270;-73
2023/01/17 21:06:29;;;;;;;17.70;9.27;;;0.50;99.90;;;;;;4949879;29;20303;-73
2023/01/17 21:08:55;;;;;;;16.57;8.93;;;0.50;99.90;;;;;;4952207;29;20219;-73
2023/01/17 21:11:24;;;;;;;18.23;8.50;;;0.50;99.90;;;;;;4957213;28;20235;-73
2023/01/17 21:13:51;;;;;;;17.13;8.27;;;0.50;99.90;;;;;;4956780;29;20560;-73
2023/01/17 21:16:22;;;;;;;15.13;8.47;;;0.50;99.90;;;;;;4957032;29;20631;-73
2023/01/17 21:18:51;;;;;;;15.80;8.13;;;0.60;99.90;;;;;;4957046;29;20294;-73
2023/01/17 21:21:20;;;;;;;13.53;7.03;;;0.50;99.90;;;;;;4958203;28;20219;-73
2023/01/17 21:23:48;;;;;;;16.10;6.67;;;0.40;99.90;;;;;;4957766;29;20208;-74
2023/01/17 21:26:16;;;;;;;17.53;7.50;;;0.40;99.90;;;;;;4952352;29;20219;-73
2023/01/17 21:28:45;;;;;;;14.83;7.70;;;0.40;99.90;;;;;;4955856;29;20578;-73
2023/01/17 21:31:19;;;;;;;16.87;7.73;;;0.40;99.90;;;;;;4956430;29;20219;-73
2023/01/17 21:33:47;;;;;;;15.10;7.60;;;0.50;99.90;;;;;;4956076;29;21376;-74
2023/01/17 21:36:15;;;;;;;17.77;6.77;;;0.50;99.90;;;;;;4956223;29;20207;-73
2023/01/17 21:38:42;;;;;;;14.83;7.53;;;0.50;99.90;;;;;;4955993;29;20619;-76
2023/01/17 21:41:09;;;;;;;10.67;6.17;;;0.50;99.90;;;;;;4935857;29;21082;-72
2023/01/17 21:43:36;;;;;;;16.77;6.93;;;0.50;99.90;;;;;;4918227;29;20247;-72
2023/01/17 21:46:03;;;;;;;10.50;6.13;;;0.50;99.90;;;;;;4933987;29;20209;-73
2023/01/17 21:48:30;;;;;;;12.20;5.90;;;0.40;99.90;;;;;;4936513;29;20205;-73
2023/01/17 21:51:04;;;;;;;11.30;5.60;;;0.40;99.90;;;;;;4937506;29;20223;-73
2023/01/17 21:53:32;;;;;;;17.23;7.03;;;0.40;99.90;;;;;;4937900;29;20232;-73
2023/01/17 21:58:47;;;;;;;10.70;5.70;;;0.40;99.90;;;;;;4937695;29;20220;-74
2023/01/17 22:01:20;;;;;;;10.77;5.77;;;0.60;99.90;;;;;;4937898;29;20216;-73
2023/01/17 22:03:48;;;;;;;17.20;5.63;;;0.50;99.90;;;;;;4937938;29;20267;-75
2023/01/17 22:06:17;;;;;;;11.30;4.87;;;0.50;99.90;;;;;;4932028;29;20209;-74